sensor_id;sensor_type;location;lat;lon;timestamp;pressure;altitude;pressure_sealevel;temperature;humidity
46722;BME280;32455;43.430;23.136;2022-07-23T00:01:20;98171.16;;;26.66;31.56
46722;BME280;32455;43.430;23.136;2022-07-23T00:04:07;98173.56;;;26.68;31.67
46722;BME280;32455;43.430;23.136;2022-07-23T00:06:52;98170.69;;;26.64;31.82
46722;BME280;32455;43.430;23.136;2022-07-23T00:09:37;98179.28;;;26.63;32.19
46722;BME280;32455;43.430;23.136;2022-07-23T00:12:22;98176.19;;;26.64;32.28
46722;BME280;32455;43.430;23.136;2022-07-23T00:15:07;98193.53;;;26.65;32.23
46722;BME280;32455;43.430;23.136;2022-07-23T00:17:56;98164.72;;;26.45;32.47
46722;BME280;32455;43.430;23.136;2022-07-23T00:20:40;98186.56;;;26.59;32.02
46722;BME280;32455;43.430;23.136;2022-07-23T00:23:26;98169.56;;;26.57;31.93
46722;BME280;32455;43.430;23.136;2022-07-23T00:26:14;98181.22;;;26.62;31.71
46722;BME280;32455;43.430;23.136;2022-07-23T00:28:59;98186.09;;;26.57;32.01
46722;BME280;32455;43.430;23.136;2022-07-23T00:31:44;98181.06;;;26.50;31.98
46722;BME280;32455;43.430;23.136;2022-07-23T00:34:30;98180.59;;;26.48;32.18
46722;BME280;32455;43.430;23.136;2022-07-23T00:37:17;98178.81;;;26.43;31.97
46722;BME280;32455;43.430;23.136;2022-07-23T00:40:02;98173.78;;;26.37;32.16
46722;BME280;32455;43.430;23.136;2022-07-23T00:43:16;98155.97;;;26.26;31.78
46722;BME280;32455;43.430;23.136;2022-07-23T00:46:19;98148.03;;;26.15;31.69
46722;BME280;32455;43.430;23.136;2022-07-23T00:49:10;98144.47;;;26.23;31.39
46722;BME280;32455;43.430;23.136;2022-07-23T00:52:02;98110.28;;;26.07;31.50
46722;BME280;32455;43.430;23.136;2022-07-23T00:54:47;98176.34;;;26.42;31.67
46722;BME280;32455;43.430;23.136;2022-07-23T00:57:32;98178.81;;;26.35;31.63
46722;BME280;32455;43.430;23.136;2022-07-23T01:00:19;98161.31;;;26.22;31.91
46722;BME280;32455;43.430;23.136;2022-07-23T01:03:04;98164.09;;;26.22;31.61
46722;BME280;32455;43.430;23.136;2022-07-23T01:05:50;98173.31;;;26.26;32.23
46722;BME280;32455;43.430;23.136;2022-07-23T01:08:35;98180.44;;;26.10;33.02
46722;BME280;32455;43.430;23.136;2022-07-23T01:11:23;98176.88;;;25.92;33.34
46722;BME280;32455;43.430;23.136;2022-07-23T01:14:11;98185.44;;;25.82;33.87
46722;BME280;32455;43.430;23.136;2022-07-23T01:16:57;98173.09;;;25.62;34.48
46722;BME280;32455;43.430;23.136;2022-07-23T01:19:42;98185.34;;;25.47;35.51
46722;BME280;32455;43.430;23.136;2022-07-23T01:22:29;98172.53;;;25.34;35.70
46722;BME280;32455;43.430;23.136;2022-07-23T01:25:14;98183.88;;;25.32;35.85
46722;BME280;32455;43.430;23.136;2022-07-23T01:28:00;98171.91;;;25.37;36.07
46722;BME280;32455;43.430;23.136;2022-07-23T01:30:46;98179.19;;;25.41;35.86
46722;BME280;32455;43.430;23.136;2022-07-23T01:33:32;98162.50;;;25.29;35.80
46722;BME280;32455;43.430;23.136;2022-07-23T01:36:17;98159.25;;;25.27;35.53
46722;BME280;32455;43.430;23.136;2022-07-23T01:39:04;98166.75;;;25.04;35.99
46722;BME280;32455;43.430;23.136;2022-07-23T01:41:49;98170.59;;;24.94;36.57
46722;BME280;32455;43.430;23.136;2022-07-23T01:44:34;98156.25;;;24.75;36.64
46722;BME280;32455;43.430;23.136;2022-07-23T01:47:20;98169.84;;;24.71;37.36
46722;BME280;32455;43.430;23.136;2022-07-23T01:50:06;98170.03;;;24.53;38.17
46722;BME280;32455;43.430;23.136;2022-07-23T01:52:51;98182.81;;;24.35;38.88
46722;BME280;32455;43.430;23.136;2022-07-23T01:55:37;98167.84;;;24.18;39.17
46722;BME280;32455;43.430;23.136;2022-07-23T01:58:23;98179.56;;;24.10;39.67
46722;BME280;32455;43.430;23.136;2022-07-23T02:01:08;98179.19;;;24.03;40.42
46722;BME280;32455;43.430;23.136;2022-07-23T02:03:54;98166.91;;;24.01;40.48
46722;BME280;32455;43.430;23.136;2022-07-23T02:06:40;98177.19;;;24.17;39.98
46722;BME280;32455;43.430;23.136;2022-07-23T02:09:25;98167.59;;;24.29;39.69
46722;BME280;32455;43.430;23.136;2022-07-23T02:12:11;98180.50;;;24.42;39.25
46722;BME280;32455;43.430;23.136;2022-07-23T02:14:56;98177.84;;;24.59;38.60
46722;BME280;32455;43.430;23.136;2022-07-23T02:17:42;98179.47;;;24.91;37.25
46722;BME280;32455;43.430;23.136;2022-07-23T02:20:27;98168.16;;;24.93;37.04
46722;BME280;32455;43.430;23.136;2022-07-23T02:23:12;98179.19;;;25.02;36.75
46722;BME280;32455;43.430;23.136;2022-07-23T02:25:58;98194.47;;;25.16;36.62
46722;BME280;32455;43.430;23.136;2022-07-23T02:28:43;98181.06;;;25.15;36.78
46722;BME280;32455;43.430;23.136;2022-07-23T02:31:29;98188.81;;;25.13;37.10
46722;BME280;32455;43.430;23.136;2022-07-23T02:34:14;98174.81;;;25.01;37.22
46722;BME280;32455;43.430;23.136;2022-07-23T02:37:00;98183.78;;;24.84;38.32
46722;BME280;32455;43.430;23.136;2022-07-23T02:39:44;98182.59;;;24.67;38.54
46722;BME280;32455;43.430;23.136;2022-07-23T02:42:30;98181.59;;;24.63;38.70
46722;BME280;32455;43.430;23.136;2022-07-23T02:45:15;98178.16;;;24.58;39.09
46722;BME280;32455;43.430;23.136;2022-07-23T02:48:01;98184.34;;;24.41;39.62
46722;BME280;32455;43.430;23.136;2022-07-23T02:50:47;98180.94;;;24.21;40.39
46722;BME280;32455;43.430;23.136;2022-07-23T02:53:32;98202.03;;;24.12;40.46
46722;BME280;32455;43.430;23.136;2022-07-23T02:56:18;98185.44;;;23.95;40.70
46722;BME280;32455;43.430;23.136;2022-07-23T02:59:03;98203.56;;;23.82;40.92
46722;BME280;32455;43.430;23.136;2022-07-23T03:01:49;98203.97;;;23.76;41.69
46722;BME280;32455;43.430;23.136;2022-07-23T03:04:35;98207.13;;;23.69;42.12
46722;BME280;32455;43.430;23.136;2022-07-23T03:07:20;98199.72;;;23.56;42.50
46722;BME280;32455;43.430;23.136;2022-07-23T03:10:06;98200.63;;;23.51;42.75
46722;BME280;32455;43.430;23.136;2022-07-23T03:12:51;98198.16;;;23.63;43.01
46722;BME280;32455;43.430;23.136;2022-07-23T03:15:37;98196.84;;;23.61;42.84
46722;BME280;32455;43.430;23.136;2022-07-23T03:18:22;98202.13;;;23.71;42.84
46722;BME280;32455;43.430;23.136;2022-07-23T03:21:07;98198.28;;;23.72;42.81
46722;BME280;32455;43.430;23.136;2022-07-23T03:23:53;98204.19;;;23.65;42.96
46722;BME280;32455;43.430;23.136;2022-07-23T03:26:38;98205.56;;;23.63;42.79
46722;BME280;32455;43.430;23.136;2022-07-23T03:29:24;98206.41;;;23.49;43.01
46722;BME280;32455;43.430;23.136;2022-07-23T03:32:10;98191.41;;;23.47;43.41
46722;BME280;32455;43.430;23.136;2022-07-23T03:34:55;98210.50;;;23.66;43.51
46722;BME280;32455;43.430;23.136;2022-07-23T03:37:40;98216.97;;;23.70;43.96
46722;BME280;32455;43.430;23.136;2022-07-23T03:40:26;98220.84;;;23.69;44.05
46722;BME280;32455;43.430;23.136;2022-07-23T03:43:12;98214.84;;;23.67;44.17
46722;BME280;32455;43.430;23.136;2022-07-23T03:45:58;98214.84;;;23.67;44.25
46722;BME280;32455;43.430;23.136;2022-07-23T03:48:43;98213.00;;;23.76;44.74
46722;BME280;32455;43.430;23.136;2022-07-23T03:51:29;98221.75;;;23.78;44.66
46722;BME280;32455;43.430;23.136;2022-07-23T03:54:14;98201.44;;;23.65;44.88
46722;BME280;32455;43.430;23.136;2022-07-23T03:57:00;98211.97;;;23.86;45.10
46722;BME280;32455;43.430;23.136;2022-07-23T03:59:45;98217.78;;;24.20;42.88
46722;BME280;32455;43.430;23.136;2022-07-23T04:02:30;98223.50;;;24.46;41.13
46722;BME280;32455;43.430;23.136;2022-07-23T04:05:16;98218.31;;;24.67;40.16
46722;BME280;32455;43.430;23.136;2022-07-23T04:08:01;98210.50;;;24.92;39.22
46722;BME280;32455;43.430;23.136;2022-07-23T04:10:46;98217.53;;;25.07;38.96
46722;BME280;32455;43.430;23.136;2022-07-23T04:13:32;98227.66;;;25.20;38.93
46722;BME280;32455;43.430;23.136;2022-07-23T04:16:16;98227.19;;;25.27;38.96
46722;BME280;32455;43.430;23.136;2022-07-23T04:19:01;98232.91;;;25.39;38.32
46722;BME280;32455;43.430;23.136;2022-07-23T04:21:48;98218.34;;;25.38;38.26
46722;BME280;32455;43.430;23.136;2022-07-23T04:24:34;98227.94;;;25.50;38.52
46722;BME280;32455;43.430;23.136;2022-07-23T04:27:19;98224.69;;;25.56;37.99
46722;BME280;32455;43.430;23.136;2022-07-23T04:30:05;98237.41;;;25.75;37.51
46722;BME280;32455;43.430;23.136;2022-07-23T04:32:52;98241.63;;;25.81;37.80
46722;BME280;32455;43.430;23.136;2022-07-23T04:35:37;98234.50;;;25.80;38.10
46722;BME280;32455;43.430;23.136;2022-07-23T04:38:22;98218.00;;;25.80;37.82
46722;BME280;32455;43.430;23.136;2022-07-23T04:41:08;98238.72;;;25.86;38.31
46722;BME280;32455;43.430;23.136;2022-07-23T04:43:54;98221.75;;;25.92;38.32
46722;BME280;32455;43.430;23.136;2022-07-23T04:46:39;98225.47;;;25.96;38.01
46722;BME280;32455;43.430;23.136;2022-07-23T04:49:25;98245.75;;;26.09;38.15
46722;BME280;32455;43.430;23.136;2022-07-23T04:52:10;98239.59;;;26.12;37.93
46722;BME280;32455;43.430;23.136;2022-07-23T04:54:56;98252.69;;;26.24;37.96
46722;BME280;32455;43.430;23.136;2022-07-23T04:57:41;98245.56;;;26.23;37.87
46722;BME280;32455;43.430;23.136;2022-07-23T05:00:27;98251.09;;;26.23;37.99
46722;BME280;32455;43.430;23.136;2022-07-23T05:03:12;98250.44;;;26.35;38.68
46722;BME280;32455;43.430;23.136;2022-07-23T05:05:58;98260.34;;;26.44;38.43
46722;BME280;32455;43.430;23.136;2022-07-23T05:08:44;98247.19;;;26.41;38.86
46722;BME280;32455;43.430;23.136;2022-07-23T05:11:29;98254.47;;;26.37;39.46
46722;BME280;32455;43.430;23.136;2022-07-23T05:14:15;98262.28;;;26.35;39.42
46722;BME280;32455;43.430;23.136;2022-07-23T05:17:00;98267.44;;;26.37;40.24
46722;BME280;32455;43.430;23.136;2022-07-23T05:19:46;98266.31;;;26.38;40.42
46722;BME280;32455;43.430;23.136;2022-07-23T05:22:31;98259.03;;;26.42;41.81
46722;BME280;32455;43.430;23.136;2022-07-23T05:25:16;98256.25;;;26.33;42.31
46722;BME280;32455;43.430;23.136;2022-07-23T05:28:02;98263.09;;;26.53;44.00
46722;BME280;32455;43.430;23.136;2022-07-23T05:30:47;98261.31;;;26.66;44.17
46722;BME280;32455;43.430;23.136;2022-07-23T05:33:33;98242.34;;;26.64;46.34
46722;BME280;32455;43.430;23.136;2022-07-23T05:36:19;98270.38;;;26.84;46.90
46722;BME280;32455;43.430;23.136;2022-07-23T05:39:04;98265.81;;;26.88;46.82
46722;BME280;32455;43.430;23.136;2022-07-23T05:41:50;98260.31;;;26.88;47.31
46722;BME280;32455;43.430;23.136;2022-07-23T05:44:38;98257.88;;;26.86;47.41
46722;BME280;32455;43.430;23.136;2022-07-23T05:47:24;98257.06;;;26.86;46.95
46722;BME280;32455;43.430;23.136;2022-07-23T05:50:11;98272.78;;;26.94;46.03
46722;BME280;32455;43.430;23.136;2022-07-23T05:52:57;98262.91;;;26.84;44.33
46722;BME280;32455;43.430;23.136;2022-07-23T05:55:43;98271.34;;;26.88;43.46
46722;BME280;32455;43.430;23.136;2022-07-23T05:58:28;98265.84;;;26.79;43.65
46722;BME280;32455;43.430;23.136;2022-07-23T06:01:13;98269.53;;;26.92;43.47
46722;BME280;32455;43.430;23.136;2022-07-23T06:03:58;98267.41;;;26.97;43.01
46722;BME280;32455;43.430;23.136;2022-07-23T06:06:44;98264.00;;;27.01;41.09
46722;BME280;32455;43.430;23.136;2022-07-23T06:09:29;98277.63;;;27.14;38.57
46722;BME280;32455;43.430;23.136;2022-07-23T06:12:15;98270.00;;;27.20;39.24
46722;BME280;32455;43.430;23.136;2022-07-23T06:15:02;98263.50;;;27.25;38.71
46722;BME280;32455;43.430;23.136;2022-07-23T06:17:48;98266.69;;;27.35;37.57
46722;BME280;32455;43.430;23.136;2022-07-23T06:20:33;98273.94;;;27.49;37.88
46722;BME280;32455;43.430;23.136;2022-07-23T06:23:18;98280.38;;;27.61;38.35
46722;BME280;32455;43.430;23.136;2022-07-23T06:26:04;98276.75;;;27.69;39.51
46722;BME280;32455;43.430;23.136;2022-07-23T06:28:49;98268.66;;;27.64;38.91
46722;BME280;32455;43.430;23.136;2022-07-23T06:31:35;98274.50;;;27.71;39.61
46722;BME280;32455;43.430;23.136;2022-07-23T06:34:20;98266.88;;;27.68;38.75
46722;BME280;32455;43.430;23.136;2022-07-23T06:37:06;98270.75;;;27.76;38.51
46722;BME280;32455;43.430;23.136;2022-07-23T06:39:51;98274.63;;;27.84;37.59
46722;BME280;32455;43.430;23.136;2022-07-23T06:42:36;98265.13;;;27.93;38.46
46722;BME280;32455;43.430;23.136;2022-07-23T06:45:24;98268.16;;;28.01;37.24
46722;BME280;32455;43.430;23.136;2022-07-23T06:48:09;98267.63;;;28.07;37.75
46722;BME280;32455;43.430;23.136;2022-07-23T06:50:55;98268.59;;;28.11;38.21
46722;BME280;32455;43.430;23.136;2022-07-23T06:53:41;98275.06;;;28.15;38.57
46722;BME280;32455;43.430;23.136;2022-07-23T06:56:26;98267.16;;;28.26;38.18
46722;BME280;32455;43.430;23.136;2022-07-23T06:59:11;98260.16;;;28.29;38.95
46722;BME280;32455;43.430;23.136;2022-07-23T07:01:57;98270.84;;;28.39;38.98
46722;BME280;32455;43.430;23.136;2022-07-23T07:04:43;98280.94;;;28.56;39.28
46722;BME280;32455;43.430;23.136;2022-07-23T07:07:29;98267.84;;;28.65;38.18
46722;BME280;32455;43.430;23.136;2022-07-23T07:10:14;98266.00;;;28.69;37.17
46722;BME280;32455;43.430;23.136;2022-07-23T07:13:01;98282.66;;;28.81;38.47
46722;BME280;32455;43.430;23.136;2022-07-23T07:15:47;98269.88;;;29.10;37.81
46722;BME280;32455;43.430;23.136;2022-07-23T07:18:32;98251.88;;;29.04;37.11
46722;BME280;32455;43.430;23.136;2022-07-23T07:21:17;98277.28;;;29.18;37.54
46722;BME280;32455;43.430;23.136;2022-07-23T07:24:02;98266.09;;;29.27;37.86
46722;BME280;32455;43.430;23.136;2022-07-23T07:26:48;98279.25;;;29.42;37.47
46722;BME280;32455;43.430;23.136;2022-07-23T07:29:33;98260.94;;;29.50;37.62
46722;BME280;32455;43.430;23.136;2022-07-23T07:32:18;98265.47;;;29.79;36.12
46722;BME280;32455;43.430;23.136;2022-07-23T07:35:05;98268.22;;;29.91;35.69
46722;BME280;32455;43.430;23.136;2022-07-23T07:37:51;98263.94;;;29.93;35.67
46722;BME280;32455;43.430;23.136;2022-07-23T07:40:37;98265.34;;;30.00;35.65
46722;BME280;32455;43.430;23.136;2022-07-23T07:43:21;98252.97;;;30.09;35.60
46722;BME280;32455;43.430;23.136;2022-07-23T07:46:06;98278.25;;;30.32;34.64
46722;BME280;32455;43.430;23.136;2022-07-23T07:48:54;98278.91;;;30.41;35.35
46722;BME280;32455;43.430;23.136;2022-07-23T07:51:39;98267.56;;;30.47;34.82
46722;BME280;32455;43.430;23.136;2022-07-23T07:54:25;98263.47;;;30.56;35.43
46722;BME280;32455;43.430;23.136;2022-07-23T07:57:10;98263.00;;;30.66;34.30
46722;BME280;32455;43.430;23.136;2022-07-23T07:59:55;98263.41;;;30.81;34.20
46722;BME280;32455;43.430;23.136;2022-07-23T08:02:48;98265.88;;;30.98;34.91
46722;BME280;32455;43.430;23.136;2022-07-23T08:05:34;98263.94;;;31.14;33.64
46722;BME280;32455;43.430;23.136;2022-07-23T08:08:19;98263.03;;;31.26;33.01
46722;BME280;32455;43.430;23.136;2022-07-23T08:11:05;98274.09;;;31.70;32.85
46722;BME280;32455;43.430;23.136;2022-07-23T08:13:50;98270.38;;;31.82;32.44
46722;BME280;32455;43.430;23.136;2022-07-23T08:16:36;98257.06;;;31.72;33.10
46722;BME280;32455;43.430;23.136;2022-07-23T08:19:22;98268.91;;;31.84;32.66
46722;BME280;32455;43.430;23.136;2022-07-23T08:22:07;98260.97;;;32.02;31.08
46722;BME280;32455;43.430;23.136;2022-07-23T08:24:52;98260.97;;;32.02;30.90
46722;BME280;32455;43.430;23.136;2022-07-23T08:27:37;98256.66;;;32.05;31.96
46722;BME280;32455;43.430;23.136;2022-07-23T08:30:23;98266.13;;;32.20;31.57
46722;BME280;32455;43.430;23.136;2022-07-23T08:33:11;98265.19;;;32.31;31.73
46722;BME280;32455;43.430;23.136;2022-07-23T08:35:59;98266.78;;;32.32;30.91
46722;BME280;32455;43.430;23.136;2022-07-23T08:38:45;98265.88;;;32.44;31.62
46722;BME280;32455;43.430;23.136;2022-07-23T08:41:30;98267.06;;;32.62;30.93
46722;BME280;32455;43.430;23.136;2022-07-23T08:44:18;98269.25;;;32.73;30.45
46722;BME280;32455;43.430;23.136;2022-07-23T08:47:03;98260.22;;;32.79;30.49
46722;BME280;32455;43.430;23.136;2022-07-23T08:49:49;98277.47;;;32.85;30.85
46722;BME280;32455;43.430;23.136;2022-07-23T08:52:36;98268.25;;;32.81;30.06
46722;BME280;32455;43.430;23.136;2022-07-23T08:55:22;98266.81;;;32.90;29.77
46722;BME280;32455;43.430;23.136;2022-07-23T08:58:08;98263.13;;;33.25;29.20
46722;BME280;32455;43.430;23.136;2022-07-23T09:00:53;98260.19;;;33.18;30.05
46722;BME280;32455;43.430;23.136;2022-07-23T09:03:40;98262.88;;;33.11;29.45
46722;BME280;32455;43.430;23.136;2022-07-23T09:06:25;98266.31;;;33.04;29.37
46722;BME280;32455;43.430;23.136;2022-07-23T09:09:18;98271.00;;;33.00;29.62
46722;BME280;32455;43.430;23.136;2022-07-23T09:12:05;98256.69;;;33.44;29.72
46722;BME280;32455;43.430;23.136;2022-07-23T09:14:52;98256.25;;;33.42;29.97
46722;BME280;32455;43.430;23.136;2022-07-23T09:17:42;98243.72;;;33.78;29.11
46722;BME280;32455;43.430;23.136;2022-07-23T09:20:27;98254.91;;;34.05;28.17
46722;BME280;32455;43.430;23.136;2022-07-23T09:23:36;98266.88;;;34.09;28.33
46722;BME280;32455;43.430;23.136;2022-07-23T09:29:27;98239.84;;;33.86;27.85
46722;BME280;32455;43.430;23.136;2022-07-23T09:32:13;98265.31;;;33.85;27.35
46722;BME280;32455;43.430;23.136;2022-07-23T09:34:59;98249.06;;;33.64;27.47
46722;BME280;32455;43.430;23.136;2022-07-23T09:38:01;98258.41;;;33.75;27.73
46722;BME280;32455;43.430;23.136;2022-07-23T09:41:07;98254.19;;;34.11;28.87
46722;BME280;32455;43.430;23.136;2022-07-23T09:43:56;98235.06;;;34.10;28.10
46722;BME280;32455;43.430;23.136;2022-07-23T09:46:52;98238.53;;;34.33;27.60
46722;BME280;32455;43.430;23.136;2022-07-23T09:50:02;98246.13;;;34.63;28.86
46722;BME280;32455;43.430;23.136;2022-07-23T09:52:50;98247.13;;;34.48;28.27
46722;BME280;32455;43.430;23.136;2022-07-23T09:55:37;98248.81;;;34.56;28.18
46722;BME280;32455;43.430;23.136;2022-07-23T09:58:23;98247.59;;;34.53;27.64
46722;BME280;32455;43.430;23.136;2022-07-23T10:01:13;98237.22;;;34.54;27.85
46722;BME280;32455;43.430;23.136;2022-07-23T10:03:59;98239.31;;;34.60;27.49
46722;BME280;32455;43.430;23.136;2022-07-23T10:06:45;98236.56;;;34.64;27.52
46722;BME280;32455;43.430;23.136;2022-07-23T10:09:36;98240.38;;;34.82;27.61
46722;BME280;32455;43.430;23.136;2022-07-23T10:12:22;98236.47;;;34.91;26.36
46722;BME280;32455;43.430;23.136;2022-07-23T10:15:08;98231.16;;;34.78;26.34
46722;BME280;32455;43.430;23.136;2022-07-23T10:17:53;98230.59;;;35.03;27.44
46722;BME280;32455;43.430;23.136;2022-07-23T10:20:40;98235.78;;;35.01;26.59
46722;BME280;32455;43.430;23.136;2022-07-23T10:23:40;98241.78;;;34.99;26.81
46722;BME280;32455;43.430;23.136;2022-07-23T10:27:02;98231.00;;;35.01;26.68
46722;BME280;32455;43.430;23.136;2022-07-23T10:29:58;98224.69;;;35.08;26.26
46722;BME280;32455;43.430;23.136;2022-07-23T10:33:20;98230.25;;;35.04;27.01
46722;BME280;32455;43.430;23.136;2022-07-23T10:36:47;98222.75;;;35.12;26.87
46722;BME280;32455;43.430;23.136;2022-07-23T10:39:35;98213.16;;;35.13;26.37
46722;BME280;32455;43.430;23.136;2022-07-23T10:42:21;98208.34;;;35.10;25.92
46722;BME280;32455;43.430;23.136;2022-07-23T10:45:35;98212.09;;;35.28;25.91
46722;BME280;32455;43.430;23.136;2022-07-23T10:48:24;98209.72;;;35.30;27.07
46722;BME280;32455;43.430;23.136;2022-07-23T10:51:16;98205.00;;;35.38;26.68
46722;BME280;32455;43.430;23.136;2022-07-23T10:54:02;98204.78;;;35.57;28.39
46722;BME280;32455;43.430;23.136;2022-07-23T11:02:56;98196.94;;;35.77;25.71
46722;BME280;32455;43.430;23.136;2022-07-23T11:05:44;98188.16;;;35.79;26.14
46722;BME280;32455;43.430;23.136;2022-07-23T11:08:30;98190.16;;;35.82;25.95
46722;BME280;32455;43.430;23.136;2022-07-23T11:11:17;98184.56;;;35.78;25.44
46722;BME280;32455;43.430;23.136;2022-07-23T11:14:02;98180.91;;;35.71;24.29
46722;BME280;32455;43.430;23.136;2022-07-23T11:16:47;98171.41;;;35.82;25.51
46722;BME280;32455;43.430;23.136;2022-07-23T11:23:02;98178.63;;;35.91;24.19
46722;BME280;32455;43.430;23.136;2022-07-23T11:25:49;98179.50;;;35.98;22.99
46722;BME280;32455;43.430;23.136;2022-07-23T11:28:35;98169.50;;;35.97;23.39
46722;BME280;32455;43.430;23.136;2022-07-23T11:31:23;98163.00;;;35.82;24.16
46722;BME280;32455;43.430;23.136;2022-07-23T11:40:20;98156.47;;;36.33;24.25
46722;BME280;32455;43.430;23.136;2022-07-23T11:43:09;98163.75;;;36.52;24.53
46722;BME280;32455;43.430;23.136;2022-07-23T11:45:58;98150.97;;;36.55;24.37
46722;BME280;32455;43.430;23.136;2022-07-23T11:48:44;98144.16;;;36.45;24.45
46722;BME280;32455;43.430;23.136;2022-07-23T11:51:29;98153.38;;;36.60;23.64
46722;BME280;32455;43.430;23.136;2022-07-23T11:54:16;98140.06;;;36.35;23.60
46722;BME280;32455;43.430;23.136;2022-07-23T11:57:03;98144.59;;;36.65;23.80
46722;BME280;32455;43.430;23.136;2022-07-23T11:59:53;98145.00;;;36.81;23.38
46722;BME280;32455;43.430;23.136;2022-07-23T12:02:45;98142.88;;;36.39;23.38
46722;BME280;32455;43.430;23.136;2022-07-23T12:05:33;98146.13;;;36.48;24.26
46722;BME280;32455;43.430;23.136;2022-07-23T12:08:20;98148.19;;;36.69;23.65
46722;BME280;32455;43.430;23.136;2022-07-23T12:11:06;98147.38;;;36.69;23.71
46722;BME280;32455;43.430;23.136;2022-07-23T12:13:57;98151.41;;;36.78;23.75
46722;BME280;32455;43.430;23.136;2022-07-23T12:16:43;98146.56;;;36.54;23.72
46722;BME280;32455;43.430;23.136;2022-07-23T12:19:28;98139.00;;;36.76;24.38
46722;BME280;32455;43.430;23.136;2022-07-23T12:22:15;98131.00;;;36.85;24.34
46722;BME280;32455;43.430;23.136;2022-07-23T12:25:23;98122.25;;;37.01;23.86
46722;BME280;32455;43.430;23.136;2022-07-23T12:28:29;98128.25;;;37.14;23.41
46722;BME280;32455;43.430;23.136;2022-07-23T12:31:14;98123.84;;;37.02;24.16
46722;BME280;32455;43.430;23.136;2022-07-23T12:34:00;98131.06;;;37.10;23.31
46722;BME280;32455;43.430;23.136;2022-07-23T12:36:45;98119.44;;;37.19;23.10
46722;BME280;32455;43.430;23.136;2022-07-23T12:39:32;98113.81;;;37.29;22.77
46722;BME280;32455;43.430;23.136;2022-07-23T12:42:17;98103.81;;;37.32;23.45
46722;BME280;32455;43.430;23.136;2022-07-23T12:45:06;98107.81;;;37.31;22.91
46722;BME280;32455;43.430;23.136;2022-07-23T12:48:05;98104.22;;;37.27;22.64
46722;BME280;32455;43.430;23.136;2022-07-23T12:53:43;98109.78;;;37.63;22.04
46722;BME280;32455;43.430;23.136;2022-07-23T12:56:35;98105.81;;;37.35;22.42
46722;BME280;32455;43.430;23.136;2022-07-23T12:59:20;98101.44;;;37.23;22.01
46722;BME280;32455;43.430;23.136;2022-07-23T13:02:08;98100.63;;;37.08;23.14
46722;BME280;32455;43.430;23.136;2022-07-23T13:04:55;98083.00;;;37.26;22.70
46722;BME280;32455;43.430;23.136;2022-07-23T13:07:41;98092.22;;;37.48;22.08
46722;BME280;32455;43.430;23.136;2022-07-23T13:10:26;98095.03;;;37.23;22.48
46722;BME280;32455;43.430;23.136;2022-07-23T13:13:12;98081.41;;;37.21;21.21
46722;BME280;32455;43.430;23.136;2022-07-23T13:15:58;98076.59;;;37.25;22.98
46722;BME280;32455;43.430;23.136;2022-07-23T13:18:43;98076.19;;;37.41;22.72
46722;BME280;32455;43.430;23.136;2022-07-23T13:21:29;98082.53;;;37.74;22.39
46722;BME280;32455;43.430;23.136;2022-07-23T13:24:14;98076.53;;;37.65;21.68
46722;BME280;32455;43.430;23.136;2022-07-23T13:26:59;98065.41;;;37.40;22.22
46722;BME280;32455;43.430;23.136;2022-07-23T13:29:45;98068.50;;;37.70;22.20
46722;BME280;32455;43.430;23.136;2022-07-23T13:32:30;98069.59;;;37.98;22.21
46722;BME280;32455;43.430;23.136;2022-07-23T13:35:17;98054.13;;;37.65;21.91
46722;BME280;32455;43.430;23.136;2022-07-23T13:38:04;98068.81;;;37.97;22.03
46722;BME280;32455;43.430;23.136;2022-07-23T13:40:52;98065.13;;;38.11;21.97
46722;BME280;32455;43.430;23.136;2022-07-23T13:43:38;98061.59;;;38.00;21.24
46722;BME280;32455;43.430;23.136;2022-07-23T13:46:23;98060.84;;;37.89;21.07
46722;BME280;32455;43.430;23.136;2022-07-23T13:49:09;98048.44;;;37.86;22.63
46722;BME280;32455;43.430;23.136;2022-07-23T13:51:54;98058.44;;;37.87;22.89
46722;BME280;32455;43.430;23.136;2022-07-23T13:54:39;98042.34;;;37.98;22.94
46722;BME280;32455;43.430;23.136;2022-07-23T13:57:25;98053.94;;;38.07;22.40
46722;BME280;32455;43.430;23.136;2022-07-23T14:00:11;98040.63;;;38.22;22.71
46722;BME280;32455;43.430;23.136;2022-07-23T14:02:57;98048.47;;;38.52;22.79
46722;BME280;32455;43.430;23.136;2022-07-23T14:05:43;98039.38;;;38.34;22.35
46722;BME280;32455;43.430;23.136;2022-07-23T14:08:29;98050.72;;;38.09;21.13
46722;BME280;32455;43.430;23.136;2022-07-23T14:11:14;98048.59;;;38.27;21.10
46722;BME280;32455;43.430;23.136;2022-07-23T14:14:00;98033.31;;;38.43;21.39
46722;BME280;32455;43.430;23.136;2022-07-23T14:16:47;98042.44;;;38.54;21.31
46722;BME280;32455;43.430;23.136;2022-07-23T14:19:32;98031.94;;;38.62;21.70
46722;BME280;32455;43.430;23.136;2022-07-23T14:22:18;98027.53;;;38.61;22.01
46722;BME280;32455;43.430;23.136;2022-07-23T14:25:05;98015.34;;;38.26;22.63
46722;BME280;32455;43.430;23.136;2022-07-23T14:27:51;98000.00;;;37.68;22.44
46722;BME280;32455;43.430;23.136;2022-07-23T14:30:36;98033.09;;;38.05;21.71
46722;BME280;32455;43.430;23.136;2022-07-23T14:33:25;98023.91;;;38.01;22.19
46722;BME280;32455;43.430;23.136;2022-07-23T14:36:10;98024.19;;;38.21;21.24
46722;BME280;32455;43.430;23.136;2022-07-23T14:38:57;98024.34;;;37.99;22.18
46722;BME280;32455;43.430;23.136;2022-07-23T14:41:45;98016.69;;;38.03;20.90
46722;BME280;32455;43.430;23.136;2022-07-23T14:44:31;98024.97;;;38.25;22.21
46722;BME280;32455;43.430;23.136;2022-07-23T14:47:16;98024.56;;;38.33;22.07
46722;BME280;32455;43.430;23.136;2022-07-23T14:50:02;98021.75;;;38.26;21.75
46722;BME280;32455;43.430;23.136;2022-07-23T14:52:49;98017.69;;;38.38;21.64
46722;BME280;32455;43.430;23.136;2022-07-23T14:55:34;98020.50;;;38.31;21.74